Time;durP1;ratioP1;P1;durP2;ratioP2;P2;SDS_P1;SDS_P2;PMS_P1;PMS_P2;Temp;Humidity;BMP_temperature;BMP_pressure;BME280_temperature;BME280_humidity;BME280_pressure;Samples;Min_cycle;Max_cycle;Signal;HPM_P1;HPM_P2
2021/03/29 00:02:15;;;;;;;14.90;4.33;;;9.30;80.30;;;;;;5055574;28;20032;-90
2021/03/29 00:04:41;;;;;;;9.50;3.70;;;9.30;80.30;;;;;;5056326;28;20493;-90
2021/03/29 00:07:08;;;;;;;14.23;5.67;;;9.30;80.20;;;;;;5021815;28;20037;-90
2021/03/29 00:09:36;;;;;;;14.37;4.77;;;9.30;80.50;;;;;;5021210;28;20183;-90
2021/03/29 00:12:04;;;;;;;12.53;5.23;;;9.20;80.40;;;;;;5021638;28;20041;-90
2021/03/29 00:14:31;;;;;;;11.30;4.77;;;9.20;80.50;;;;;;5005211;28;20127;-90
2021/03/29 00:16:57;;;;;;;13.80;3.93;;;9.30;80.40;;;;;;5037468;28;20041;-90
2021/03/29 00:19:23;;;;;;;8.60;3.77;;;9.20;80.40;;;;;;5054084;28;20036;-90
2021/03/29 00:21:49;;;;;;;11.23;4.07;;;9.20;80.40;;;;;;5020889;28;20033;-89
2021/03/29 00:24:16;;;;;;;13.30;4.57;;;9.10;80.50;;;;;;5037391;28;20029;-91
2021/03/29 00:26:43;;;;;;;11.13;4.33;;;9.20;80.40;;;;;;5020553;28;20060;-90
2021/03/29 00:29:08;;;;;;;12.60;3.70;;;9.10;80.40;;;;;;5037804;28;20083;-90
2021/03/29 00:31:34;;;;;;;11.03;3.70;;;9.30;80.40;;;;;;5054979;28;20486;-88
2021/03/29 00:34:02;;;;;;;12.53;4.80;;;9.10;80.30;;;;;;5020287;28;20424;-89
2021/03/29 00:36:29;;;;;;;18.13;3.90;;;9.10;80.30;;;;;;5036416;28;20025;-89
2021/03/29 00:38:55;;;;;;;12.97;4.77;;;9.10;80.30;;;;;;5054504;28;20082;-88
2021/03/29 00:41:22;;;;;;;13.83;4.37;;;9.10;80.40;;;;;;5053349;28;21039;-89
2021/03/29 00:43:49;;;;;;;14.33;3.93;;;9.10;80.40;;;;;;5036108;28;20044;-89
2021/03/29 00:46:17;;;;;;;11.73;4.20;;;9.10;80.50;;;;;;5020271;28;20025;-86
2021/03/29 00:48:43;;;;;;;12.57;3.77;;;9.10;80.50;;;;;;5036427;28;20083;-87
2021/03/29 00:51:19;;;;;;;17.70;4.80;;;9.00;80.50;;;;;;5019486;28;20582;-87
2021/03/29 00:53:56;;;;;;;10.97;4.10;;;9.00;80.40;;;;;;5035972;28;20052;-88
2021/03/29 00:56:24;;;;;;;12.10;3.63;;;9.00;80.50;;;;;;5036411;28;20021;-87
2021/03/29 00:58:51;;;;;;;14.83;4.00;;;9.00;80.50;;;;;;5036540;28;20499;-89
2021/03/29 01:01:39;;;;;;;12.87;4.43;;;9.00;80.70;;;;;;5037055;28;20043;-87
2021/03/29 01:04:06;;;;;;;11.60;4.50;;;9.00;80.60;;;;;;5036495;28;20135;-89
2021/03/29 01:06:35;;;;;;;13.00;4.07;;;9.00;80.70;;;;;;5036677;28;20064;-89
2021/03/29 01:09:10;;;;;;;14.87;4.20;;;9.00;80.70;;;;;;5052485;28;20035;-89
2021/03/29 01:11:41;;;;;;;17.13;4.60;;;9.00;80.70;;;;;;5019469;28;20043;-88
2021/03/29 01:14:13;;;;;;;14.97;4.53;;;9.00;80.80;;;;;;5053965;28;20039;-88
2021/03/29 01:16:47;;;;;;;12.47;3.83;;;9.00;80.90;;;;;;5036303;28;20500;-88
2021/03/29 01:19:35;;;;;;;14.57;3.95;;;9.00;80.80;;;;;;5028894;28;20060;-87
2021/03/29 01:22:06;;;;;;;16.17;4.90;;;9.00;81.10;;;;;;4999702;28;20486;-87
2021/03/29 01:25:13;;;;;;;14.83;3.73;;;9.00;81.10;;;;;;5019590;28;20136;-88
2021/03/29 01:27:47;;;;;;;13.73;4.10;;;9.00;81.20;;;;;;4992229;28;20026;-88
2021/03/29 01:30:14;;;;;;;19.30;4.80;;;9.00;81.20;;;;;;4976169;28;20062;-87
2021/03/29 01:32:43;;;;;;;14.73;4.53;;;9.10;81.40;;;;;;5008162;28;20512;-90
2021/03/29 01:35:18;;;;;;;12.73;4.20;;;9.10;81.50;;;;;;5036565;28;20021;-90
2021/03/29 01:37:48;;;;;;;;;;;9.10;81.40;;;;;;5037397;28;20492;-88
2021/03/29 01:40:16;;;;;;;14.53;4.70;;;9.10;81.50;;;;;;5036781;28;19980;-89
2021/03/29 01:42:42;;;;;;;17.63;5.30;;;9.20;81.30;;;;;;5037125;28;20048;-87
2021/03/29 01:45:10;;;;;;;17.27;3.97;;;9.20;81.20;;;;;;5036709;28;20116;-87
2021/03/29 01:47:37;;;;;;;13.23;4.53;;;9.20;80.90;;;;;;5020424;28;20393;-89
2021/03/29 01:50:04;;;;;;;15.83;4.43;;;9.40;80.80;;;;;;5053702;28;20028;-89
2021/03/29 01:52:31;;;;;;;16.57;5.03;;;9.40;80.60;;;;;;5021020;28;20036;-88
2021/03/29 01:54:57;;;;;;;14.77;4.70;;;9.50;80.40;;;;;;5040024;28;20466;-89
2021/03/29 01:57:23;;;;;;;16.30;4.70;;;9.50;80.20;;;;;;5023049;28;20021;-89
2021/03/29 01:59:49;;;;;;;24.10;5.63;;;9.50;80.00;;;;;;5022953;28;20039;-90
2021/03/29 02:02:15;;;;;;;12.60;4.50;;;9.50;79.80;;;;;;5039411;28;20045;-87
2021/03/29 02:04:41;;;;;;;16.67;4.07;;;9.50;79.70;;;;;;5022565;28;20083;-89
2021/03/29 02:07:08;;;;;;;15.40;4.77;;;9.60;79.60;;;;;;5039500;28;20432;-87
2021/03/29 02:09:35;;;;;;;17.57;4.33;;;9.60;79.60;;;;;;5022331;28;20037;-89
2021/03/29 02:12:03;;;;;;;12.20;3.87;;;9.60;79.50;;;;;;5055793;28;20037;-90
2021/03/29 02:14:29;;;;;;;12.90;3.63;;;9.60;79.30;;;;;;5023409;28;20029;-90
2021/03/29 02:16:57;;;;;;;14.07;4.40;;;9.70;79.30;;;;;;5039116;28;20474;-89
2021/03/29 02:19:24;;;;;;;14.87;4.33;;;9.70;79.20;;;;;;5039923;28;20029;-88
2021/03/29 02:21:50;;;;;;;13.00;4.57;;;9.70;79.10;;;;;;5006922;28;20128;-89
2021/03/29 02:24:17;;;;;;;15.67;4.60;;;9.60;79.10;;;;;;5039715;28;20017;-91
2021/03/29 02:26:44;;;;;;;20.93;5.10;;;9.60;78.90;;;;;;5039364;28;20025;-91
2021/03/29 02:29:10;;;;;;;18.00;4.63;;;9.60;78.90;;;;;;5006415;28;20428;-90
2021/03/29 02:31:37;;;;;;;15.03;4.27;;;9.70;78.90;;;;;;5022267;28;20033;-89
2021/03/29 02:34:04;;;;;;;13.43;5.43;;;9.60;78.80;;;;;;5038987;28;20024;-87
2021/03/29 02:36:31;;;;;;;14.07;4.47;;;9.60;78.80;;;;;;5022050;28;20535;-87
2021/03/29 02:38:57;;;;;;;14.30;5.53;;;9.50;78.80;;;;;;5021821;28;20037;-86
2021/03/29 02:41:26;;;;;;;13.43;4.47;;;9.60;78.90;;;;;;5021529;28;20115;-87
2021/03/29 02:43:53;;;;;;;11.97;4.17;;;9.60;78.90;;;;;;5038071;28;20434;-86
2021/03/29 02:46:23;;;;;;;13.63;5.07;;;9.50;78.90;;;;;;5038205;28;20029;-86
2021/03/29 02:48:49;;;;;;;13.00;4.27;;;9.50;78.90;;;;;;5055764;28;20035;-86
2021/03/29 02:51:16;;;;;;;14.90;4.10;;;9.60;79.00;;;;;;5021763;28;20041;-87
2021/03/29 02:56:43;;;;;;;13.37;3.73;;;9.50;79.00;;;;;;5077563;28;20411;-74
2021/03/29 02:59:20;;;;;;;12.87;4.30;;;9.40;79.10;;;;;;5073522;28;20490;-75
2021/03/29 03:01:46;;;;;;;12.33;4.20;;;9.30;79.00;;;;;;5074915;28;20021;-74
2021/03/29 03:04:14;;;;;;;17.60;5.53;;;9.30;79.10;;;;;;5056491;28;20029;-75
2021/03/29 03:06:40;;;;;;;14.13;5.40;;;9.40;79.30;;;;;;5057192;28;20017;-74
2021/03/29 03:09:08;;;;;;;15.90;4.73;;;9.30;79.30;;;;;;5057077;28;20107;-75
2021/03/29 03:11:34;;;;;;;19.03;5.50;;;9.30;79.30;;;;;;5074892;28;20059;-75
2021/03/29 03:14:07;;;;;;;15.67;5.20;;;9.30;79.40;;;;;;5056870;28;20464;-75
2021/03/29 03:16:36;;;;;;;14.30;5.97;;;9.30;79.50;;;;;;5057134;28;20048;-75
2021/03/29 03:19:02;;;;;;;16.00;6.03;;;9.30;79.50;;;;;;5074979;28;20441;-75
2021/03/29 03:21:32;;;;;;;16.43;6.33;;;9.30;79.60;;;;;;5056895;28;20142;-74
2021/03/29 03:23:58;;;;;;;14.60;6.43;;;9.30;79.60;;;;;;5056816;28;20020;-75
2021/03/29 03:26:26;;;;;;;20.80;7.40;;;9.20;79.60;;;;;;5056845;28;20480;-76
2021/03/29 03:28:53;;;;;;;20.33;7.20;;;9.20;79.70;;;;;;5056773;28;20036;-74
2021/03/29 03:31:19;;;;;;;20.07;7.70;;;9.20;79.70;;;;;;5056580;28;20035;-75
2021/03/29 03:33:45;;;;;;;19.33;8.33;;;9.10;79.70;;;;;;5040170;28;20025;-76
2021/03/29 03:36:12;;;;;;;16.07;7.77;;;9.10;79.80;;;;;;5074511;28;20032;-75
2021/03/29 03:38:41;;;;;;;18.97;8.17;;;9.10;79.80;;;;;;5056890;28;20032;-75
2021/03/29 03:41:10;;;;;;;18.63;7.83;;;9.10;79.80;;;;;;5056462;28;20111;-76
2021/03/29 03:43:43;;;;;;;20.53;8.57;;;9.10;79.90;;;;;;5056413;28;20016;-75
2021/03/29 03:46:18;;;;;;;17.50;8.33;;;9.00;80.50;;;;;;5056447;28;20078;-75
2021/03/29 03:48:45;;;;;;;21.73;8.30;;;9.10;80.00;;;;;;5074160;28;20035;-75
2021/03/29 03:51:11;;;;;;;17.93;8.30;;;9.20;80.00;;;;;;5056319;28;20024;-76
2021/03/29 03:53:37;;;;;;;19.03;7.80;;;9.20;80.10;;;;;;5039647;28;20028;-75
2021/03/29 03:56:04;;;;;;;17.40;7.53;;;9.10;80.10;;;;;;5056093;28;20041;-75
2021/03/29 03:58:31;;;;;;;17.13;7.20;;;9.10;80.10;;;;;;5056039;28;20066;-76
2021/03/29 04:00:58;;;;;;;22.00;8.33;;;9.10;80.10;;;;;;5055258;28;20016;-76
2021/03/29 04:03:29;;;;;;;17.40;6.87;;;9.20;80.20;;;;;;5072822;28;20028;-75
2021/03/29 04:05:55;;;;;;;18.60;7.10;;;9.10;80.10;;;;;;5066171;28;20135;-75
2021/03/29 04:08:21;;;;;;;18.10;6.27;;;9.10;80.80;;;;;;5075532;28;20028;-75
2021/03/29 04:10:54;;;;;;;15.70;5.80;;;9.10;80.20;;;;;;5093834;28;20487;-74
2021/03/29 04:15:48;;;;;;;17.00;6.87;;;9.10;80.30;;;;;;5094195;28;20020;-75
2021/03/29 04:18:14;;;;;;;17.23;6.03;;;9.10;80.30;;;;;;5075975;28;20181;-76
2021/03/29 04:20:40;;;;;;;13.97;5.10;;;9.20;80.40;;;;;;5059191;28;20416;-75
2021/03/29 04:23:06;;;;;;;18.97;6.30;;;9.10;80.30;;;;;;5093974;28;20027;-76
2021/03/29 04:25:31;;;;;;;14.30;5.17;;;9.10;80.30;;;;;;5042479;28;20475;-75
2021/03/29 04:27:57;;;;;;;14.33;4.83;;;9.10;80.30;;;;;;5059463;28;20085;-76
2021/03/29 04:30:24;;;;;;;14.50;4.67;;;9.20;80.30;;;;;;5059170;28;20028;-77
2021/03/29 04:32:52;;;;;;;12.90;5.00;;;9.20;80.30;;;;;;5058963;28;20433;-76
2021/03/29 04:35:21;;;;;;;17.03;5.10;;;9.20;80.30;;;;;;5075611;28;20383;-76
2021/03/29 04:37:48;;;;;;;13.30;3.93;;;9.20;80.30;;;;;;5059135;28;20043;-75
2021/03/29 04:40:13;;;;;;;10.17;4.20;;;9.20;80.20;;;;;;5058805;28;20028;-76
2021/03/29 04:42:39;;;;;;;15.93;4.83;;;9.20;80.10;;;;;;5042338;28;20070;-75
2021/03/29 04:45:07;;;;;;;17.03;4.77;;;9.20;80.20;;;;;;5093969;28;20032;-75
2021/03/29 04:47:33;;;;;;;14.20;4.63;;;9.20;80.20;;;;;;5075514;28;20085;-76
2021/03/29 04:49:58;;;;;;;14.93;3.43;;;9.30;80.50;;;;;;5075642;28;20542;-76
2021/03/29 04:52:24;;;;;;;15.60;3.80;;;9.30;80.20;;;;;;5094254;28;20036;-76
2021/03/29 04:54:50;;;;;;;16.67;3.73;;;9.30;80.20;;;;;;5071153;28;20051;-75
2021/03/29 04:57:16;;;;;;;11.30;3.73;;;9.30;80.10;;;;;;5072813;28;20032;-75
2021/03/29 04:59:41;;;;;;;12.17;3.53;;;9.30;80.10;;;;;;5059124;28;20517;-75
2021/03/29 05:02:07;;;;;;;14.77;3.67;;;9.30;80.10;;;;;;5058429;28;20032;-76
2021/03/29 05:04:32;;;;;;;12.60;3.07;;;9.30;80.10;;;;;;5022421;28;20113;-75
2021/03/29 05:06:58;;;;;;;12.03;2.80;;;9.30;80.10;;;;;;5038287;28;20044;-76
2021/03/29 05:09:24;;;;;;;20.37;4.43;;;9.30;80.10;;;;;;5038860;28;20033;-75
2021/03/29 05:11:54;;;;;;;12.17;3.67;;;9.30;80.10;;;;;;5073657;28;20043;-76
2021/03/29 05:14:20;;;;;;;17.03;3.90;;;9.20;80.10;;;;;;5055907;28;20390;-76
2021/03/29 05:16:47;;;;;;;12.30;3.17;;;9.40;80.20;;;;;;5055992;28;20027;-76
2021/03/29 05:19:13;;;;;;;10.70;3.00;;;9.30;80.20;;;;;;5055633;28;20069;-75
2021/03/29 05:21:39;;;;;;;10.60;3.00;;;9.30;80.80;;;;;;5038486;28;20032;-76
2021/03/29 05:24:06;;;;;;;8.07;3.17;;;9.20;80.20;;;;;;5039035;28;20028;-75
2021/03/29 05:26:32;;;;;;;11.77;3.27;;;9.20;80.30;;;;;;5055325;28;20036;-75
2021/03/29 05:28:58;;;;;;;11.13;3.23;;;9.20;80.40;;;;;;5059049;28;20032;-76
2021/03/29 05:31:24;;;;;;;9.50;3.97;;;9.30;80.60;;;;;;5077340;28;20119;-75
2021/03/29 05:33:50;;;;;;;13.10;3.80;;;9.10;80.50;;;;;;5077249;28;20024;-76
2021/03/29 05:36:16;;;;;;;13.63;3.43;;;9.10;80.50;;;;;;5042460;28;20483;-76
2021/03/29 05:38:43;;;;;;;11.87;4.23;;;9.20;80.70;;;;;;5042662;28;20078;-75
2021/03/29 05:41:14;;;;;;;10.97;3.30;;;9.30;80.60;;;;;;5077049;28;20040;-76
2021/03/29 05:43:41;;;;;;;10.27;3.37;;;9.30;80.60;;;;;;5063746;28;21432;-76
2021/03/29 05:46:07;;;;;;;9.90;3.10;;;9.30;80.50;;;;;;5058727;28;20134;-76
2021/03/29 05:48:35;;;;;;;14.13;4.07;;;9.30;80.40;;;;;;5078643;28;20120;-76
2021/03/29 05:51:07;;;;;;;11.67;3.00;;;9.30;80.40;;;;;;5076065;28;20403;-75
2021/03/29 05:53:35;;;;;;;12.00;3.60;;;9.30;80.30;;;;;;5078791;28;20028;-76
2021/03/29 05:56:03;;;;;;;10.17;3.53;;;9.40;80.30;;;;;;5058646;28;20044;-76
2021/03/29 06:00:55;;;;;;;12.23;3.47;;;9.40;80.20;;;;;;5078794;28;20432;-77
2021/03/29 06:03:22;;;;;;;10.80;3.33;;;9.40;80.10;;;;;;5096651;28;20028;-75
2021/03/29 06:05:48;;;;;;;12.77;4.03;;;9.40;80.00;;;;;;5096549;28;20054;-75
2021/03/29 06:08:14;;;;;;;11.80;3.10;;;9.50;80.10;;;;;;5049486;28;20040;-76
2021/03/29 06:10:41;;;;;;;15.07;4.03;;;9.50;80.00;;;;;;5074281;28;20425;-75
2021/03/29 06:13:18;;;;;;;10.20;3.80;;;9.50;80.00;;;;;;5078369;28;20054;-76
2021/03/29 06:15:45;;;;;;;10.03;3.27;;;9.60;79.90;;;;;;5060099;28;20108;-75
2021/03/29 06:18:15;;;;;;;9.57;3.00;;;9.60;79.80;;;;;;5041314;28;20020;-76
2021/03/29 06:21:06;;;;;;;10.13;2.97;;;9.50;79.70;;;;;;5093216;28;20079;-76
2021/03/29 06:23:33;;;;;;;9.70;2.57;;;9.60;79.90;;;;;;5081133;28;20398;-76
2021/03/29 06:26:22;;;;;;;12.93;3.23;;;9.60;79.90;;;;;;5058614;28;20028;-75
2021/03/29 06:28:50;;;;;;;11.97;4.10;;;9.60;79.90;;;;;;5075685;28;20036;-76
2021/03/29 06:31:24;;;;;;;8.77;2.73;;;9.60;79.80;;;;;;5078078;28;20135;-76
2021/03/29 06:33:50;;;;;;;12.55;3.25;;;9.70;79.80;;;;;;5077912;28;20023;-76
2021/03/29 06:36:26;;;;;;;12.70;3.50;;;9.70;79.80;;;;;;5078478;28;20032;-74
2021/03/29 06:38:52;;;;;;;11.93;3.37;;;9.70;79.90;;;;;;5094235;28;20353;-73
2021/03/29 06:41:26;;;;;;;10.20;3.47;;;9.70;79.80;;;;;;5095642;28;20409;-73
2021/03/29 06:43:52;;;;;;;11.38;3.00;;;9.70;79.80;;;;;;5095731;28;20476;-74
2021/03/29 06:46:23;;;;;;;11.70;2.77;;;9.70;79.80;;;;;;5061411;28;20093;-74
2021/03/29 06:48:49;;;;;;;10.90;3.53;;;9.70;79.80;;;;;;5095568;28;20020;-74
2021/03/29 06:51:19;;;;;;;9.67;2.73;;;9.70;79.80;;;;;;5095617;28;20043;-75
2021/03/29 06:54:07;;;;;;;14.60;3.90;;;9.80;80.50;;;;;;5096014;28;20026;-74
2021/03/29 06:56:34;;;;;;;12.00;3.67;;;9.80;79.90;;;;;;5095670;28;20068;-74
2021/03/29 06:59:02;;;;;;;11.00;3.00;;;9.80;79.90;;;;;;5095683;28;20016;-74
2021/03/29 07:01:28;;;;;;;10.90;3.93;;;9.80;79.90;;;;;;5076980;28;20032;-74
2021/03/29 07:03:55;;;;;;;13.47;3.20;;;9.80;80.00;;;;;;5077488;28;20063;-74
2021/03/29 07:06:27;;;;;;;13.40;3.40;;;9.80;80.00;;;;;;5095567;28;20120;-74
2021/03/29 07:09:01;;;;;;;11.33;2.80;;;10.00;80.00;;;;;;5094473;28;20038;-74
2021/03/29 07:11:26;;;;;;;14.25;3.90;;;9.80;79.90;;;;;;5094416;28;20071;-74
2021/03/29 07:13:53;;;;;;;12.83;3.23;;;9.90;80.00;;;;;;5076832;28;20048;-74
2021/03/29 07:16:21;;;;;;;9.90;3.53;;;9.90;80.00;;;;;;5095138;28;20034;-73
2021/03/29 07:18:48;;;;;;;11.70;2.97;;;9.90;80.00;;;;;;5077084;28;20107;-76
2021/03/29 07:21:16;;;;;;;13.37;4.27;;;10.00;80.60;;;;;;5095324;28;20106;-76
2021/03/29 07:23:42;;;;;;;16.53;4.13;;;10.10;80.00;;;;;;5077291;28;20027;-76
2021/03/29 07:26:43;;;;;;;11.87;2.93;;;10.00;80.00;;;;;;5076637;28;20119;-76
2021/03/29 07:29:22;;;;;;;12.40;3.03;;;10.00;80.00;;;;;;5093244;28;20093;-76
2021/03/29 07:31:59;;;;;;;9.57;2.90;;;10.10;79.80;;;;;;5056425;28;20025;-77
2021/03/29 07:34:47;;;;;;;14.37;4.03;;;10.10;79.80;;;;;;5074532;28;20017;-75
2021/03/29 07:37:34;;;;;;;8.87;2.70;;;10.20;79.70;;;;;;5074622;28;20054;-76
2021/03/29 07:40:07;;;;;;;10.73;3.17;;;10.20;79.70;;;;;;5074701;28;20020;-76
2021/03/29 07:42:35;;;;;;;13.47;4.17;;;10.20;79.70;;;;;;5056533;28;20021;-76
2021/03/29 07:45:07;;;;;;;10.80;3.03;;;10.30;79.60;;;;;;5057066;28;20108;-75
2021/03/29 07:47:56;;;;;;;10.17;2.93;;;10.40;79.50;;;;;;5069883;28;20429;-76
2021/03/29 07:50:24;;;;;;;10.47;2.97;;;10.40;79.50;;;;;;5070295;28;20040;-76
2021/03/29 07:52:52;;;;;;;8.57;2.70;;;10.50;79.50;;;;;;5093993;28;20031;-77
2021/03/29 07:55:26;;;;;;;11.63;4.27;;;10.50;79.50;;;;;;5075958;28;20020;-75
2021/03/29 07:57:52;;;;;;;10.20;3.77;;;10.60;79.40;;;;;;5094117;28;20102;-75
2021/03/29 08:00:24;;;;;;;11.17;3.27;;;10.60;79.30;;;;;;5069877;28;20025;-75
2021/03/29 08:02:54;;;;;;;11.13;3.10;;;10.70;79.20;;;;;;5074147;28;20031;-75
2021/03/29 08:05:45;;;;;;;12.57;3.80;;;10.70;78.90;;;;;;5073907;28;20024;-75
2021/03/29 08:10:58;;;;;;;15.40;3.47;;;10.80;79.00;;;;;;5074454;28;20029;-75
2021/03/29 08:13:51;;;;;;;12.60;3.83;;;10.90;78.90;;;;;;5056614;28;20032;-74
2021/03/29 08:16:28;;;;;;;19.80;4.00;;;11.00;78.60;;;;;;5056240;28;20024;-75
2021/03/29 08:19:14;;;;;;;10.97;3.10;;;11.10;78.40;;;;;;5074130;28;20028;-75
2021/03/29 08:22:14;;;;;;;11.33;3.60;;;11.10;78.30;;;;;;5059696;28;20020;-75
2021/03/29 08:24:49;;;;;;;10.87;3.10;;;11.10;78.10;;;;;;5072925;28;20087;-76
2021/03/29 08:27:15;;;;;;;12.20;3.43;;;11.20;78.20;;;;;;5093989;28;20032;-76
2021/03/29 08:29:42;;;;;;;12.37;3.33;;;11.20;78.20;;;;;;5093858;28;20034;-75
2021/03/29 08:32:30;;;;;;;11.97;3.87;;;11.30;77.90;;;;;;5075585;28;20042;-74
2021/03/29 08:35:09;;;;;;;11.07;3.23;;;11.30;78.10;;;;;;5093910;28;20028;-75
2021/03/29 08:37:50;;;;;;;8.93;2.90;;;11.40;78.00;;;;;;5076006;28;20069;-76
2021/03/29 08:40:24;;;;;;;9.07;3.63;;;11.40;77.70;;;;;;5094336;28;20052;-76
2021/03/29 08:42:53;;;;;;;12.83;3.73;;;11.50;77.30;;;;;;5093352;28;20367;-76
2021/03/29 08:45:21;;;;;;;14.05;3.28;;;11.50;77.80;;;;;;5093022;28;20024;-75
2021/03/29 08:47:50;;;;;;;14.47;3.70;;;11.60;77.10;;;;;;5090806;28;20125;-76
2021/03/29 08:50:19;;;;;;;13.13;4.07;;;11.70;76.90;;;;;;5058318;28;20039;-75
2021/03/29 08:52:59;;;;;;;13.52;3.65;;;11.70;76.90;;;;;;5075899;28;20478;-76
2021/03/29 08:55:31;;;;;;;9.88;2.92;;;11.80;76.90;;;;;;5090669;28;20028;-76
2021/03/29 08:57:58;;;;;;;12.97;3.63;;;11.90;76.40;;;;;;5093201;28;20020;-75
2021/03/29 09:00:29;;;;;;;10.95;3.28;;;11.90;75.90;;;;;;5055489;28;20021;-75
2021/03/29 09:02:55;;;;;;;8.15;2.30;;;12.00;75.90;;;;;;5092327;28;20020;-75
2021/03/29 09:05:23;;;;;;;8.63;2.70;;;12.20;75.20;;;;;;5093651;28;20024;-78
2021/03/29 09:07:51;;;;;;;9.20;2.90;;;12.20;73.90;;;;;;5075410;28;20039;-74
2021/03/29 09:10:24;;;;;;;15.32;3.10;;;12.30;73.40;;;;;;5059301;28;20056;-76
2021/03/29 09:13:05;;;;;;;11.57;3.05;;;12.30;73.40;;;;;;5093025;28;20119;-75
2021/03/29 09:15:52;;;;;;;12.27;2.88;;;12.40;73.10;;;;;;5073267;28;20024;-74
2021/03/29 09:18:24;;;;;;;8.93;3.10;;;12.50;72.70;;;;;;5093486;28;20028;-76
2021/03/29 09:20:52;;;;;;;12.48;3.88;;;12.70;71.90;;;;;;5075637;28;20101;-76
2021/03/29 09:23:20;;;;;;;8.73;2.70;;;12.70;71.00;;;;;;5074626;28;20039;-76
2021/03/29 09:25:47;;;;;;;11.15;2.78;;;12.80;71.40;;;;;;5058156;28;20145;-76
2021/03/29 09:28:47;;;;;;;9.27;2.80;;;12.80;70.60;;;;;;5093079;28;20028;-76
2021/03/29 09:31:20;;;;;;;15.00;3.08;;;13.00;69.30;;;;;;5075165;28;20040;-76
2021/03/29 09:33:48;;;;;;;7.43;2.35;;;13.10;69.40;;;;;;5074291;28;20031;-76
2021/03/29 09:36:19;;;;;;;12.60;2.92;;;13.10;69.50;;;;;;5093216;28;20024;-76
2021/03/29 09:38:48;;;;;;;11.38;2.55;;;13.20;68.20;;;;;;5075184;28;20020;-75
2021/03/29 09:41:18;;;;;;;8.30;2.35;;;13.30;66.40;;;;;;5074828;28;20086;-76
2021/03/29 09:43:46;;;;;;;6.50;2.28;;;13.30;65.20;;;;;;5074878;28;20505;-75
2021/03/29 09:46:13;;;;;;;7.18;2.17;;;13.40;65.20;;;;;;5075143;28;20490;-76
2021/03/29 09:48:38;;;;;;;9.27;2.20;;;13.50;66.50;;;;;;5093002;28;20074;-75
2021/03/29 09:51:21;;;;;;;13.25;2.28;;;13.60;66.40;;;;;;5058556;28;20406;-76
2021/03/29 09:53:47;;;;;;;10.00;2.90;;;13.70;65.00;;;;;;5075002;28;20086;-76
2021/03/29 09:56:13;;;;;;;10.48;2.63;;;13.70;63.80;;;;;;5069867;28;20044;-76
2021/03/29 09:58:45;;;;;;;10.20;2.60;;;13.80;63.70;;;;;;5048605;28;20024;-76
2021/03/29 10:01:22;;;;;;;9.25;2.33;;;13.90;64.00;;;;;;5082720;28;20043;-75
2021/03/29 10:04:00;;;;;;;11.73;2.25;;;13.90;62.30;;;;;;5071355;28;20718;-77
2021/03/29 10:06:28;;;;;;;10.60;2.50;;;14.00;62.40;;;;;;5092970;28;20410;-76
2021/03/29 10:08:59;;;;;;;10.90;2.42;;;14.20;61.80;;;;;;5068799;28;20025;-78
2021/03/29 10:11:26;;;;;;;7.05;2.38;;;14.40;61.40;;;;;;5072505;28;20040;-75
2021/03/29 10:14:04;;;;;;;10.38;2.30;;;14.50;60.70;;;;;;5056613;28;20535;-76
2021/03/29 10:16:30;;;;;;;10.20;2.88;;;14.80;60.20;;;;;;5060109;28;20031;-76
2021/03/29 10:19:07;;;;;;;9.70;2.72;;;15.20;59.70;;;;;;5078712;28;20032;-76
2021/03/29 10:21:54;;;;;;;7.30;2.55;;;15.60;58.00;;;;;;5096394;28;20360;-77
2021/03/29 10:24:20;;;;;;;9.35;2.17;;;16.00;58.70;;;;;;5078043;28;20464;-77
2021/03/29 10:26:53;;;;;;;7.22;2.17;;;16.60;57.60;;;;;;5062218;28;20039;-77
2021/03/29 10:29:41;;;;;;;6.60;2.08;;;17.30;57.00;;;;;;5078744;28;20056;-77
2021/03/29 10:32:15;;;;;;;7.70;2.22;;;18.00;55.70;;;;;;5095953;28;20028;-77
2021/03/29 10:34:43;;;;;;;9.88;2.47;;;18.80;53.50;;;;;;5077466;28;20435;-77
2021/03/29 10:37:29;;;;;;;7.63;2.28;;;19.20;51.40;;;;;;5077712;28;20024;-74
2021/03/29 10:39:57;;;;;;;9.32;1.83;;;19.80;49.60;;;;;;5095880;28;20036;-74
2021/03/29 10:42:25;;;;;;;9.20;2.50;;;20.30;50.30;;;;;;5096082;28;20472;-78
2021/03/29 10:44:52;;;;;;;7.78;1.73;;;20.80;46.00;;;;;;5078269;28;20040;-76
2021/03/29 10:47:18;;;;;;;9.82;2.17;;;21.20;47.00;;;;;;5061298;28;20119;-74
2021/03/29 10:49:44;;;;;;;8.38;1.90;;;21.50;45.90;;;;;;5077845;28;20051;-77
2021/03/29 10:52:10;;;;;;;5.90;1.70;;;22.00;46.10;;;;;;5078293;28;20032;-77
2021/03/29 10:54:37;;;;;;;8.10;1.73;;;22.30;45.00;;;;;;5061234;28;20036;-77
2021/03/29 10:57:04;;;;;;;8.60;1.73;;;22.60;43.40;;;;;;5060374;28;20044;-77
2021/03/29 10:59:30;;;;;;;7.55;1.50;;;22.90;42.50;;;;;;5077496;28;20111;-77
2021/03/29 11:01:56;;;;;;;6.40;1.73;;;23.10;42.00;;;;;;5077150;28;20169;-77
2021/03/29 11:04:22;;;;;;;6.43;1.80;;;23.40;41.90;;;;;;5077178;28;20073;-78
2021/03/29 11:06:48;;;;;;;10.65;1.85;;;23.70;40.50;;;;;;5095290;28;20032;-77
2021/03/29 11:09:13;;;;;;;9.35;1.80;;;23.80;39.40;;;;;;5060404;28;20055;-77
2021/03/29 11:11:39;;;;;;;6.32;1.70;;;24.00;38.90;;;;;;5076809;28;20361;-77
2021/03/29 11:14:05;;;;;;;10.23;2.35;;;24.00;37.80;;;;;;5043581;28;20069;-76
2021/03/29 11:16:32;;;;;;;6.47;1.85;;;24.10;38.00;;;;;;5043624;28;20127;-77
2021/03/29 11:18:58;;;;;;;8.65;1.70;;;24.30;37.50;;;;;;5076461;28;20328;-76
2021/03/29 11:21:24;;;;;;;5.82;1.80;;;24.50;37.00;;;;;;5094940;28;20089;-77
2021/03/29 11:23:50;;;;;;;10.43;2.25;;;24.50;36.90;;;;;;5094955;28;20032;-77
2021/03/29 11:26:16;;;;;;;4.90;1.80;;;24.60;37.50;;;;;;5075904;28;20032;-78
2021/03/29 11:28:41;;;;;;;5.22;1.52;;;24.90;36.30;;;;;;5076862;28;20036;-77
2021/03/29 11:31:08;;;;;;;10.30;1.50;;;25.10;36.30;;;;;;5076573;28;20429;-77
2021/03/29 11:33:34;;;;;;;8.30;1.40;;;25.40;35.00;;;;;;5076627;28;20024;-77
2021/03/29 11:35:59;;;;;;;7.40;1.70;;;25.40;34.50;;;;;;5094803;28;20027;-78
2021/03/29 11:38:25;;;;;;;7.65;1.85;;;25.50;34.10;;;;;;5094877;28;20394;-77
2021/03/29 11:40:51;;;;;;;6.05;1.80;;;25.70;33.80;;;;;;5076675;28;20039;-76
2021/03/29 11:43:17;;;;;;;7.95;1.83;;;26.10;33.70;;;;;;5094757;28;20031;-77
2021/03/29 11:45:42;;;;;;;7.65;1.83;;;26.30;32.20;;;;;;5060023;28;20134;-79
2021/03/29 11:48:10;;;;;;;6.10;1.88;;;26.30;31.50;;;;;;5094845;28;20051;-74
2021/03/29 11:50:36;;;;;;;4.88;1.70;;;26.30;31.70;;;;;;5076675;28;20134;-74
2021/03/29 11:53:01;;;;;;;9.32;2.08;;;26.40;31.70;;;;;;5076605;28;20039;-78
2021/03/29 11:55:27;;;;;;;6.10;1.65;;;26.50;30.70;;;;;;5094533;28;20024;-79
2021/03/29 11:57:56;;;;;;;6.80;1.75;;;26.50;30.60;;;;;;5093903;28;20098;-75
2021/03/29 12:01:01;;;;;;;6.97;1.88;;;26.50;30.60;;;;;;5094425;28;20027;-74
2021/03/29 12:05:47;;;;;;;6.68;1.98;;;26.70;30.20;;;;;;5083803;28;20020;-75
2021/03/29 12:08:22;;;;;;;7.25;1.85;;;26.80;29.90;;;;;;5079491;28;20115;-75
2021/03/29 12:13:36;;;;;;;6.10;2.00;;;26.90;29.90;;;;;;5074875;28;20182;-78
2021/03/29 12:16:04;;;;;;;10.15;2.15;;;27.10;30.00;;;;;;5060941;28;20028;-74
2021/03/29 12:18:37;;;;;;;8.25;1.80;;;27.40;29.80;;;;;;5075934;28;20544;-76
2021/03/29 12:21:09;;;;;;;7.90;1.80;;;27.50;29.70;;;;;;5075739;28;20024;-76
2021/03/29 12:23:36;;;;;;;7.85;1.80;;;27.60;29.40;;;;;;5094329;28;20162;-76
2021/03/29 12:26:03;;;;;;;9.57;2.33;;;27.70;29.70;;;;;;5073058;28;20040;-77
2021/03/29 12:28:31;;;;;;;7.70;1.80;;;28.00;29.50;;;;;;5056300;28;20032;-76
2021/03/29 12:30:57;;;;;;;4.63;1.27;;;28.20;29.40;;;;;;5093962;28;20533;-76
2021/03/29 12:33:24;;;;;;;6.45;1.73;;;28.40;29.50;;;;;;5075618;28;20103;-75
2021/03/29 12:35:55;;;;;;;7.07;2.15;;;28.70;29.20;;;;;;5055471;28;20036;-75
2021/03/29 12:38:23;;;;;;;6.45;1.42;;;28.80;28.70;;;;;;5054873;28;20107;-75
2021/03/29 12:40:49;;;;;;;7.85;2.17;;;28.80;27.90;;;;;;5055809;28;20039;-75
2021/03/29 12:43:31;;;;;;;9.57;1.90;;;28.80;27.80;;;;;;5022267;28;20116;-75
2021/03/29 12:45:57;;;;;;;6.28;1.42;;;28.70;27.60;;;;;;5038984;28;20541;-76
2021/03/29 12:48:23;;;;;;;3.85;1.38;;;28.70;28.30;;;;;;5055089;28;20044;-74
2021/03/29 12:50:48;;;;;;;7.55;2.00;;;28.80;28.50;;;;;;5046313;28;20040;-75
2021/03/29 12:53:15;;;;;;;5.35;1.52;;;28.90;28.60;;;;;;5065941;28;20086;-77
2021/03/29 12:55:40;;;;;;;5.43;1.92;;;29.00;28.50;;;;;;5082291;28;20020;-74
2021/03/29 12:58:06;;;;;;;8.02;1.63;;;28.90;28.40;;;;;;5090362;28;20051;-75
2021/03/29 13:00:31;;;;;;;5.68;1.48;;;28.90;28.40;;;;;;5084244;28;20024;-77
2021/03/29 13:03:01;;;;;;;5.82;1.73;;;28.80;28.30;;;;;;5070523;28;20035;-74
2021/03/29 13:05:38;;;;;;;6.93;2.10;;;29.00;28.30;;;;;;5040703;28;20028;-74
2021/03/29 13:08:14;;;;;;;9.35;2.03;;;28.90;27.80;;;;;;5020087;28;20425;-76
2021/03/29 13:13:30;;;;;;;7.63;1.77;;;28.80;28.00;;;;;;5038077;28;20051;-76
2021/03/29 13:15:56;;;;;;;5.47;1.67;;;28.90;28.10;;;;;;5035142;28;20077;-75
2021/03/29 13:18:25;;;;;;;8.75;2.22;;;29.10;28.20;;;;;;5018791;28;20056;-75